createdAt,value
2022-08-22T00:00:14.732Z,1.70
2022-08-22T00:03:25.836Z,1.95
2022-08-22T00:06:12.246Z,2.72
2022-08-22T00:09:02.671Z,2.58
2022-08-22T00:11:49.054Z,2.40
2022-08-22T00:14:29.348Z,2.75
2022-08-22T00:17:34.096Z,3.13
2022-08-22T00:20:30.254Z,2.25
2022-08-22T00:23:03.704Z,2.20
2022-08-22T00:25:49.226Z,2.60
2022-08-22T00:28:22.860Z,3.10
2022-08-22T00:31:13.785Z,2.33
2022-08-22T00:34:01.020Z,2.50
2022-08-22T00:36:41.411Z,2.80
2022-08-22T00:39:28.834Z,2.47
2022-08-22T00:42:45.124Z,2.08
2022-08-22T00:45:33.865Z,2.10
2022-08-22T00:48:21.982Z,3.00
2022-08-22T00:51:25.247Z,2.30
2022-08-22T00:54:17.352Z,2.10
2022-08-22T00:57:28.315Z,3.00
2022-08-22T01:00:13.946Z,2.53
2022-08-22T01:03:09.574Z,3.30
2022-08-22T01:08:31.283Z,3.35
2022-08-22T01:10:58.368Z,3.00
2022-08-22T01:13:56.902Z,2.72
2022-08-22T01:16:44.985Z,3.20
2022-08-22T01:19:33.568Z,3.28
2022-08-22T01:22:39.384Z,2.90
2022-08-22T01:25:25.989Z,3.13
2022-08-22T01:28:12.813Z,3.20
2022-08-22T01:30:46.315Z,2.88
2022-08-22T01:33:28.641Z,3.00
2022-08-22T01:36:40.364Z,2.38
2022-08-22T01:39:49.506Z,2.60
2022-08-22T01:42:22.507Z,2.28
2022-08-22T01:44:59.409Z,2.35
2022-08-22T01:47:43.881Z,1.98
2022-08-22T01:50:24.850Z,1.98
2022-08-22T01:53:19.605Z,2.58
2022-08-22T01:55:55.646Z,3.00
2022-08-22T01:58:30.707Z,2.67
2022-08-22T02:03:55.538Z,2.10
2022-08-22T02:06:58.293Z,3.50
2022-08-22T02:09:59.433Z,2.67
2022-08-22T02:12:41.974Z,1.80
2022-08-22T02:15:19.231Z,2.42
2022-08-22T02:18:14.451Z,1.95
2022-08-22T02:20:47.739Z,2.40
2022-08-22T02:23:46.894Z,1.90
2022-08-22T02:26:39.538Z,2.60
2022-08-22T02:29:15.354Z,2.45
2022-08-22T02:32:25.131Z,2.65
2022-08-22T02:35:04.028Z,1.92
2022-08-22T02:37:54.098Z,2.10
2022-08-22T02:40:32.038Z,2.67
2022-08-22T02:43:55.096Z,2.22
2022-08-22T02:47:15.386Z,2.90
2022-08-22T02:50:07.009Z,2.40
2022-08-22T02:53:02.465Z,2.45
2022-08-22T02:55:48.453Z,2.33
2022-08-22T03:02:37.382Z,2.55
2022-08-22T03:05:25.344Z,2.38
2022-08-22T03:08:26.731Z,3.13
2022-08-22T03:11:18.471Z,2.50
2022-08-22T03:15:11.994Z,2.45
2022-08-22T03:17:52.332Z,2.10
2022-08-22T03:20:49.392Z,2.20
2022-08-22T03:23:31.679Z,4.57
2022-08-22T03:25:59.328Z,2.90
2022-08-22T03:28:52.689Z,2.72
2022-08-22T03:31:30.007Z,2.95
2022-08-22T03:34:20.271Z,2.70
2022-08-22T03:37:18.114Z,2.83
2022-08-22T03:39:51.539Z,2.38
2022-08-22T03:42:55.485Z,2.58
2022-08-22T03:45:52.872Z,2.70
2022-08-22T03:48:56.976Z,2.58
2022-08-22T03:51:45.886Z,3.22
2022-08-22T03:54:16.000Z,2.45
2022-08-22T03:57:20.440Z,2.08
2022-08-22T04:00:14.643Z,2.90
2022-08-22T04:03:13.400Z,3.40
2022-08-22T04:05:48.231Z,2.63
2022-08-22T04:08:31.867Z,2.50
2022-08-22T04:11:28.949Z,2.47
2022-08-22T04:14:34.173Z,2.58
2022-08-22T04:17:20.213Z,2.38
2022-08-22T04:20:05.389Z,2.55
2022-08-22T04:23:03.505Z,2.05
2022-08-22T04:25:41.093Z,3.42
2022-08-22T04:28:22.221Z,2.20
2022-08-22T04:31:08.214Z,2.80
2022-08-22T04:33:54.260Z,2.40
2022-08-22T04:36:37.985Z,2.78
2022-08-22T04:39:29.184Z,2.33
2022-08-22T04:42:31.830Z,2.10
2022-08-22T04:45:03.737Z,2.45
2022-08-22T04:47:37.072Z,2.75
2022-08-22T04:50:10.293Z,2.38
2022-08-22T04:53:09.640Z,2.88
2022-08-22T04:55:48.464Z,2.45
2022-08-22T04:58:33.082Z,2.80
2022-08-22T05:04:27.844Z,3.10
2022-08-22T05:07:03.954Z,2.80
2022-08-22T05:09:35.744Z,2.50
2022-08-22T05:12:09.627Z,2.88
2022-08-22T05:14:48.595Z,2.80
2022-08-22T05:17:21.237Z,3.10
2022-08-22T05:19:53.073Z,3.25
2022-08-22T05:22:27.776Z,2.90
2022-08-22T05:25:00.253Z,3.22
2022-08-22T05:27:33.438Z,3.00
2022-08-22T05:30:25.931Z,2.80
2022-08-22T05:33:32.239Z,3.00
2022-08-22T05:36:10.310Z,3.00
2022-08-22T05:38:43.971Z,2.58
2022-08-22T05:41:20.125Z,3.27
2022-08-22T05:43:48.795Z,4.63
2022-08-22T05:46:41.580Z,2.97
2022-08-22T05:49:27.403Z,2.70
2022-08-22T05:52:00.862Z,2.67
2022-08-22T05:54:34.318Z,2.55
2022-08-22T05:57:23.823Z,2.63
2022-08-22T06:00:00.649Z,2.65
2022-08-22T06:03:12.380Z,2.90
2022-08-22T06:05:42.948Z,2.53
2022-08-22T06:08:42.239Z,2.95
2022-08-22T06:11:19.607Z,2.92
2022-08-22T06:14:19.717Z,3.05
2022-08-22T06:17:02.014Z,3.30
2022-08-22T06:19:29.752Z,3.83
2022-08-22T06:21:57.979Z,3.53
2022-08-22T06:24:28.052Z,4.97
2022-08-22T06:27:03.334Z,3.10
2022-08-22T06:29:49.481Z,3.42
2022-08-22T06:32:58.964Z,3.50
2022-08-22T06:35:55.452Z,3.03
2022-08-22T06:38:28.515Z,2.80
2022-08-22T06:41:00.543Z,3.50
2022-08-22T06:43:34.168Z,3.60
2022-08-22T06:46:01.453Z,2.65
2022-08-22T06:48:28.910Z,2.83
2022-08-22T06:50:58.673Z,3.20
2022-08-22T06:53:31.558Z,2.50
2022-08-22T06:56:08.125Z,2.95
2022-08-22T06:58:47.882Z,2.88
2022-08-22T07:01:29.653Z,3.50
2022-08-22T07:04:05.879Z,3.30
2022-08-22T07:06:43.204Z,3.17
2022-08-22T07:09:22.083Z,2.97
2022-08-22T07:11:50.920Z,3.13
2022-08-22T07:14:27.561Z,2.70
2022-08-22T07:17:02.113Z,2.90
2022-08-22T07:19:38.763Z,3.78
2022-08-22T07:24:59.898Z,3.50
2022-08-22T07:27:56.664Z,3.40
2022-08-22T07:30:33.851Z,3.50
2022-08-22T07:33:26.353Z,4.30
2022-08-22T07:36:05.820Z,3.40
2022-08-22T07:38:42.922Z,3.70
2022-08-22T07:41:16.594Z,3.30
2022-08-22T07:43:49.059Z,3.78
2022-08-22T07:46:37.190Z,3.80
2022-08-22T07:49:11.718Z,3.03
2022-08-22T07:51:48.134Z,3.83
2022-08-22T07:54:32.533Z,6.15
2022-08-22T07:57:13.801Z,3.10
2022-08-22T07:59:47.974Z,4.18
2022-08-22T08:02:16.381Z,3.28
2022-08-22T08:04:44.899Z,3.35
2022-08-22T08:07:15.591Z,3.28
2022-08-22T08:09:54.083Z,3.70
2022-08-22T08:12:33.805Z,3.10
2022-08-22T08:15:04.266Z,3.22
2022-08-22T08:17:35.498Z,2.95
2022-08-22T08:20:09.185Z,4.00
2022-08-22T08:22:38.850Z,2.88
2022-08-22T08:25:08.030Z,3.50
2022-08-22T08:27:56.584Z,3.28
2022-08-22T08:30:36.648Z,3.13
2022-08-22T08:33:24.301Z,4.22
2022-08-22T08:36:15.769Z,3.50
2022-08-22T08:39:12.453Z,3.50
2022-08-22T08:42:25.100Z,3.92
2022-08-22T08:44:58.183Z,3.78
2022-08-22T08:47:53.462Z,3.75
2022-08-22T08:50:23.818Z,4.43
2022-08-22T08:53:32.799Z,3.60
2022-08-22T08:56:03.927Z,3.75
2022-08-22T08:59:03.005Z,3.90
2022-08-22T09:01:36.142Z,3.50
2022-08-22T09:04:21.470Z,3.50
2022-08-22T09:09:29.269Z,3.70
2022-08-22T09:12:12.417Z,3.13
2022-08-22T09:15:12.011Z,3.50
2022-08-22T09:17:57.158Z,3.85
2022-08-22T09:21:16.565Z,3.90
2022-08-22T09:24:16.432Z,3.40
2022-08-22T09:27:03.186Z,3.35
2022-08-22T09:29:51.691Z,3.33
2022-08-22T09:33:02.388Z,3.50
2022-08-22T09:35:32.253Z,4.13
2022-08-22T09:38:14.648Z,3.40
2022-08-22T09:41:07.107Z,3.55
2022-08-22T09:43:49.208Z,3.90
2022-08-22T09:46:29.553Z,3.75
2022-08-22T09:49:20.365Z,4.30
2022-08-22T09:52:15.140Z,3.90
2022-08-22T09:54:51.102Z,3.33
2022-08-22T09:57:22.647Z,3.30
2022-08-22T10:00:09.958Z,4.10
2022-08-22T10:02:55.472Z,3.85
2022-08-22T10:05:44.316Z,3.08
2022-08-22T10:08:32.452Z,4.15
2022-08-22T10:11:13.956Z,4.75
2022-08-22T10:14:01.741Z,3.33
2022-08-22T10:16:42.095Z,3.53
2022-08-22T10:19:18.017Z,3.50
2022-08-22T10:22:16.652Z,3.97
2022-08-22T10:24:58.574Z,3.40
2022-08-22T10:27:41.223Z,4.65
2022-08-22T10:30:21.995Z,4.03
2022-08-22T10:33:12.284Z,3.63
2022-08-22T10:36:27.529Z,4.22
2022-08-22T10:38:57.977Z,3.00
2022-08-22T10:41:45.385Z,3.08
2022-08-22T10:44:42.069Z,3.42
2022-08-22T10:47:19.082Z,3.90
2022-08-22T10:49:56.756Z,3.53
2022-08-22T10:52:32.731Z,3.45
2022-08-22T10:55:13.981Z,3.30
2022-08-22T10:57:52.817Z,4.00
2022-08-22T11:00:25.558Z,3.95
2022-08-22T11:03:21.901Z,3.28
2022-08-22T11:05:59.020Z,3.85
2022-08-22T11:08:34.653Z,3.35
2022-08-22T11:11:20.959Z,3.00
2022-08-22T11:14:13.718Z,3.92
2022-08-22T11:17:30.817Z,3.25
2022-08-22T11:20:09.405Z,2.95
2022-08-22T11:22:58.088Z,3.10
2022-08-22T11:25:43.725Z,3.67
2022-08-22T11:28:28.770Z,3.85
2022-08-22T11:31:51.389Z,3.20
2022-08-22T11:34:24.802Z,3.60
2022-08-22T11:37:00.268Z,3.65
2022-08-22T11:40:12.601Z,3.70
2022-08-22T11:43:11.997Z,4.05
2022-08-22T11:45:51.685Z,3.60
2022-08-22T11:48:25.417Z,3.30
2022-08-22T11:51:17.624Z,3.47
2022-08-22T11:54:15.355Z,3.38
2022-08-22T11:56:53.057Z,3.13
2022-08-22T11:59:52.932Z,3.55
2022-08-22T12:02:43.360Z,3.20
2022-08-22T12:05:26.485Z,4.07
2022-08-22T12:08:13.703Z,3.15
2022-08-22T12:11:00.548Z,3.67
2022-08-22T12:13:38.125Z,3.53
2022-08-22T12:16:34.805Z,3.47
2022-08-22T12:19:27.976Z,3.30
2022-08-22T12:22:33.099Z,3.65
2022-08-22T12:25:24.575Z,3.42
2022-08-22T12:27:55.391Z,4.07
2022-08-22T12:30:46.285Z,4.40
2022-08-22T12:33:37.977Z,3.95
2022-08-22T12:36:18.299Z,3.83
2022-08-22T12:38:54.594Z,3.90
2022-08-22T12:42:09.094Z,3.25
2022-08-22T12:44:55.161Z,3.22
2022-08-22T12:48:00.676Z,3.53
2022-08-22T12:50:43.367Z,4.72
2022-08-22T12:53:18.140Z,3.90
2022-08-22T12:56:12.040Z,2.72
2022-08-22T12:58:40.534Z,3.20
2022-08-22T13:01:10.478Z,2.75
2022-08-22T13:03:45.866Z,3.15
2022-08-22T13:06:48.817Z,3.20
2022-08-22T13:09:28.597Z,2.95
2022-08-22T13:12:20.005Z,3.22
2022-08-22T13:14:53.059Z,2.95
2022-08-22T13:17:24.115Z,3.92
2022-08-22T13:19:59.349Z,3.20
2022-08-22T13:22:30.644Z,2.67
2022-08-22T13:25:04.838Z,3.08
2022-08-22T13:30:37.368Z,3.05
2022-08-22T13:33:15.137Z,3.80
2022-08-22T13:35:52.031Z,3.53
2022-08-22T13:38:33.404Z,3.28
2022-08-22T13:41:03.283Z,3.35
2022-08-22T13:43:37.799Z,3.63
2022-08-22T13:46:10.935Z,3.03
2022-08-22T13:48:51.887Z,2.78
2022-08-22T13:51:35.856Z,3.17
2022-08-22T13:54:23.112Z,2.70
2022-08-22T13:57:05.041Z,3.05
2022-08-22T13:59:50.928Z,3.30
2022-08-22T14:02:34.141Z,3.30
2022-08-22T14:05:08.554Z,3.00
2022-08-22T14:08:00.062Z,3.35
2022-08-22T14:10:33.915Z,2.65
2022-08-22T14:13:00.859Z,2.50
2022-08-22T14:15:44.596Z,3.10
2022-08-22T14:18:30.339Z,4.28
2022-08-22T14:21:20.150Z,3.95
2022-08-22T14:23:52.041Z,3.17
2022-08-22T14:26:33.091Z,2.35
2022-08-22T14:29:13.349Z,2.97
2022-08-22T14:31:42.000Z,2.83
2022-08-22T14:34:13.446Z,3.03
2022-08-22T14:37:03.987Z,3.00
2022-08-22T14:39:47.317Z,2.58
2022-08-22T14:42:19.134Z,3.15
2022-08-22T14:45:08.583Z,3.70
2022-08-22T14:48:29.370Z,3.53
2022-08-22T14:51:05.795Z,3.10
2022-08-22T14:53:38.778Z,3.08
2022-08-22T14:56:19.100Z,3.05
2022-08-22T14:58:56.024Z,3.30
2022-08-22T15:01:26.913Z,3.03
2022-08-22T15:04:05.648Z,3.37
2022-08-22T15:06:50.753Z,2.78
2022-08-22T15:09:46.965Z,2.72
2022-08-22T15:12:32.181Z,2.45
2022-08-22T15:15:10.350Z,3.30
2022-08-22T15:17:50.863Z,3.22
2022-08-22T15:20:35.262Z,3.15
2022-08-22T15:23:20.615Z,17.33
2022-08-22T15:26:00.697Z,24.25
2022-08-22T15:28:35.933Z,8.35
2022-08-22T15:31:19.533Z,6.80
2022-08-22T15:33:49.506Z,10.55
2022-08-22T15:36:26.988Z,7.07
2022-08-22T15:38:59.431Z,5.00
2022-08-22T15:41:36.696Z,5.03
2022-08-22T15:44:33.116Z,5.35
2022-08-22T15:47:03.250Z,4.03
2022-08-22T15:49:35.063Z,3.20
2022-08-22T15:52:02.082Z,3.53
2022-08-22T15:54:51.345Z,4.05
2022-08-22T15:57:34.913Z,3.88
2022-08-22T16:00:28.051Z,4.03
2022-08-22T16:03:07.561Z,3.45
2022-08-22T16:05:34.965Z,3.53
2022-08-22T16:08:14.328Z,3.00
2022-08-22T16:11:15.630Z,3.03
2022-08-22T16:13:45.303Z,3.15
2022-08-22T16:16:44.408Z,3.15
2022-08-22T16:19:22.484Z,2.97
2022-08-22T16:21:53.456Z,3.28
2022-08-22T16:24:21.785Z,3.78
2022-08-22T16:26:49.673Z,2.80
2022-08-22T16:29:41.165Z,3.08
2022-08-22T16:32:14.350Z,2.95
2022-08-22T16:34:45.553Z,3.03
2022-08-22T16:37:14.626Z,3.42
2022-08-22T16:39:43.478Z,2.80
2022-08-22T16:42:13.609Z,3.17
2022-08-22T16:44:46.799Z,3.75
2022-08-22T16:47:42.365Z,3.20
2022-08-22T16:50:37.773Z,4.07
2022-08-22T16:55:36.073Z,2.50
2022-08-22T16:58:56.585Z,3.53
2022-08-22T17:01:43.833Z,3.47
2022-08-22T17:04:10.844Z,3.50
2022-08-22T17:06:45.808Z,3.22
2022-08-22T17:09:21.912Z,3.40
2022-08-22T17:12:13.885Z,2.92
2022-08-22T17:14:53.851Z,3.40
2022-08-22T17:17:55.625Z,2.95
2022-08-22T17:20:31.925Z,2.75
2022-08-22T17:23:08.971Z,3.38
2022-08-22T17:26:12.040Z,4.25
2022-08-22T17:28:57.159Z,3.58
2022-08-22T17:31:41.711Z,2.35
2022-08-22T17:34:28.963Z,2.67
2022-08-22T17:37:04.233Z,2.67
2022-08-22T17:40:09.963Z,4.07
2022-08-22T17:43:05.384Z,10.75
2022-08-22T17:45:38.471Z,5.82
2022-08-22T17:48:31.473Z,5.20
2022-08-22T17:51:28.615Z,2.75
2022-08-22T17:54:20.025Z,3.25
2022-08-22T17:57:24.916Z,2.55
2022-08-22T18:00:17.238Z,7.45
2022-08-22T18:02:56.028Z,5.55
2022-08-22T18:05:32.298Z,3.83
2022-08-22T18:08:05.793Z,8.02
2022-08-22T18:11:05.230Z,9.43
2022-08-22T18:13:50.356Z,12.75
2022-08-22T18:16:52.231Z,5.47
2022-08-22T18:19:46.903Z,6.40
2022-08-22T18:22:29.328Z,6.17
2022-08-22T18:25:08.463Z,3.90
2022-08-22T18:28:20.415Z,5.38
2022-08-22T18:31:26.665Z,3.83
2022-08-22T18:34:05.033Z,3.88
2022-08-22T18:36:38.261Z,3.15
2022-08-22T18:39:23.769Z,10.98
2022-08-22T18:41:59.319Z,8.23
2022-08-22T18:44:32.218Z,7.63
2022-08-22T18:47:10.043Z,4.22
2022-08-22T18:49:41.836Z,9.98
2022-08-22T18:52:15.500Z,32.90
2022-08-22T18:55:03.985Z,19.17
2022-08-22T18:58:08.882Z,8.30
2022-08-22T19:00:57.671Z,4.80
2022-08-22T19:04:03.951Z,14.68
2022-08-22T19:06:41.226Z,4.00
2022-08-22T19:09:32.129Z,9.05
2022-08-22T19:12:43.401Z,7.05
2022-08-22T19:15:41.801Z,11.35
2022-08-22T19:18:21.809Z,11.00
2022-08-22T19:21:39.063Z,6.63
2022-08-22T19:24:29.383Z,8.10
2022-08-22T19:27:36.799Z,5.88
2022-08-22T19:30:26.537Z,3.35
2022-08-22T19:33:06.003Z,4.63
2022-08-22T19:35:58.011Z,3.40
2022-08-22T19:38:53.161Z,5.18
2022-08-22T19:41:53.677Z,3.90
2022-08-22T19:44:20.935Z,3.83
2022-08-22T19:47:11.096Z,3.78
2022-08-22T19:49:42.870Z,4.43
2022-08-22T19:52:15.857Z,8.15
2022-08-22T19:54:49.476Z,8.35
2022-08-22T19:57:41.936Z,14.73
2022-08-22T20:00:15.195Z,10.75
2022-08-22T20:02:59.235Z,8.80
2022-08-22T20:06:04.749Z,5.43
2022-08-22T20:08:54.047Z,14.38
2022-08-22T20:11:40.230Z,4.57
2022-08-22T20:14:29.888Z,3.00
2022-08-22T20:17:24.224Z,3.33
2022-08-22T20:20:17.685Z,3.47
2022-08-22T20:22:59.324Z,3.47
2022-08-22T20:25:43.696Z,3.25
2022-08-22T20:28:44.892Z,3.38
2022-08-22T20:31:24.526Z,3.00
2022-08-22T20:34:01.932Z,3.78
2022-08-22T20:36:30.262Z,2.97
2022-08-22T20:39:02.993Z,2.95
2022-08-22T20:41:39.310Z,2.67
2022-08-22T20:44:25.151Z,2.95
2022-08-22T20:47:07.246Z,2.55
2022-08-22T20:49:42.410Z,2.92
2022-08-22T20:52:31.582Z,3.33
2022-08-22T20:55:12.729Z,3.30
2022-08-22T20:57:53.659Z,3.53
2022-08-22T21:00:27.520Z,3.47
2022-08-22T21:03:08.982Z,3.45
2022-08-22T21:05:44.739Z,3.00
2022-08-22T21:08:19.777Z,3.03
2022-08-22T21:11:16.799Z,3.25
2022-08-22T21:13:44.180Z,3.30
2022-08-22T21:16:13.347Z,4.18
2022-08-22T21:18:45.743Z,3.50
2022-08-22T21:21:19.829Z,3.65
2022-08-22T21:23:50.169Z,3.17
2022-08-22T21:26:33.852Z,3.22
2022-08-22T21:29:06.589Z,3.67
2022-08-22T21:31:42.570Z,3.70
2022-08-22T21:34:17.213Z,3.50
2022-08-22T21:36:44.956Z,3.55
2022-08-22T21:39:22.232Z,3.42
2022-08-22T21:42:08.778Z,3.58
2022-08-22T21:44:42.233Z,3.72
2022-08-22T21:47:31.669Z,3.70
2022-08-22T21:50:13.646Z,3.63
2022-08-22T21:52:44.694Z,3.78
2022-08-22T21:55:35.174Z,4.05
2022-08-22T21:58:10.643Z,3.80
2022-08-22T22:00:48.720Z,3.75
2022-08-22T22:03:18.758Z,4.35
2022-08-22T22:05:46.210Z,3.67
2022-08-22T22:08:13.469Z,3.65
2022-08-22T22:10:43.286Z,3.80
2022-08-22T22:13:11.238Z,3.90
2022-08-22T22:15:45.948Z,4.18
2022-08-22T22:18:21.492Z,4.20
2022-08-22T22:20:50.025Z,3.95
2022-08-22T22:23:17.936Z,4.57
2022-08-22T22:25:46.194Z,4.32
2022-08-22T22:28:16.084Z,4.38
2022-08-22T22:30:44.838Z,4.30
2022-08-22T22:33:12.288Z,4.55
2022-08-22T22:35:40.688Z,4.47
2022-08-22T22:38:08.490Z,4.75
2022-08-22T22:40:36.173Z,5.30
2022-08-22T22:43:03.419Z,4.88
2022-08-22T22:45:30.675Z,5.32
2022-08-22T22:47:57.925Z,4.80
2022-08-22T22:50:25.380Z,4.97
2022-08-22T22:52:54.133Z,4.97
2022-08-22T22:55:24.026Z,5.35
2022-08-22T22:57:58.431Z,6.20
2022-08-22T23:03:03.901Z,4.57
2022-08-22T23:05:31.970Z,4.93
2022-08-22T23:07:59.838Z,4.68
2022-08-22T23:10:29.100Z,4.88
2022-08-22T23:12:56.364Z,5.03
2022-08-22T23:15:23.582Z,4.65
2022-08-22T23:17:51.228Z,4.90
2022-08-22T23:20:19.303Z,5.13
2022-08-22T23:22:46.508Z,6.47
2022-08-22T23:25:13.794Z,4.75
2022-08-22T23:27:41.355Z,4.90
2022-08-22T23:30:13.395Z,4.85
2022-08-22T23:32:40.429Z,5.32
2022-08-22T23:35:08.344Z,5.32
2022-08-22T23:37:35.594Z,4.57
2022-08-22T23:40:05.941Z,4.40
2022-08-22T23:42:33.385Z,4.93
2022-08-22T23:45:00.415Z,4.88
2022-08-22T23:47:27.663Z,5.35
2022-08-22T23:49:54.901Z,8.55
2022-08-22T23:52:21.988Z,6.20
2022-08-22T23:54:54.304Z,8.00
2022-08-22T23:57:27.527Z,8.00
2022-08-22T23:59:57.407Z,7.85
